Pikeville, Tennessee
Current Conditions -  °F | °C
As of 9:53 PM on Monday 22 Dec 2014 (Local Time) from KCSV Reporting Station
Light Rain Light Rain  
Wind Chill: 44°   Ceiling: 2000
Heat Index: 48°   Visibility: 2.5mi
Dew Point: 45°   Wind: 8mph
Humidity: 89%   Direction: 170°S
Pressure: 29.81"   Gusts: NA
Location:  35.61°N, 85.19°W
Report Text: KCSV 230353Z AUTO 17007KT 140V200 2 1/2SM -RA BR FEW005 BKN020 OVC035 09/07 A2981 RMK AO2 RAB11 SLP092 P0032 T00890072
Loading
Personal Weather Stations






























Interactive Weather Map New forecast layout! Learn more

10-Day Weather Forecast

Advertisements
Track Severe Weather on mobile